Terminal Aerodrome Forecast
Issued by NWS

Current Version | Previous Version | Graphics & Text | Print | Product List | Glossary On
Versions: 1 2 3 4 5 6 7 8 9 10 11 12 13 14 15 16 17 18 19 20 21 22
801
FTUS41 KPBZ 230218 AAA
TAFMGW
TAF AMD
KMGW 230218Z 2302/2324 22006KT P6SM VCSH BKN040
      TEMPO 2302/2303 2SM +TSRA BKN025CB
     FM230500 24006KT P6SM VCSH BKN025
     FM230800 28006KT P6SM BKN008
     FM231100 31006KT P6SM BKN015
     FM231800 31006KT P6SM SCT025=

USA.gov is the U.S. government's official web portal to all federal, state and local government web resources and services.